Saint Helena Island, SC (29920)

6:09 AM EST on December 05, 2016 (GMT -0500)
Tarpon Blvd Ocean Front | | Change Station

Elev 35 ft 32.31 °N, 80.49 °W | Updated 3 seconds ago

Light Drizzle
Light Drizzle
63.0 °F
Feels Like 63.0 °F
N
4.0
Wind Variable Wind from SW
Gusts 7.0 mph

Today
High -- | Low -- °F
--% Chance of Precip.
Yesterday
High -- | Low -- °F
Precip. -- in
Pressure 29.96 in
Visibility 7.0 miles
Clouds Mostly Cloudy 2800 ft
Mostly Cloudy 3500 ft
Dew Point 62 °F
Humidity 95%
Rainfall 0.02 in
Snow Depth Not available.
7:08 AM 5:16 PM
Waxing Crescent, 30% visible
METAR KARW 051055Z AUTO 31004KT 7SM -DZ BKN028 BKN035 16/16 A2996 RMK AO2 P0001
Pressure 29.96 in
Visibility 7.0 miles
Clouds Mostly Cloudy 2800 ft
Mostly Cloudy 3500 ft
Dew Point 62 °F
Humidity 95%
Rainfall 0.02 in
Snow Depth Not available.
7:08 AM 5:16 PM
Waxing Crescent, 30% visible
METAR KARW 051055Z AUTO 31004KT 7SM -DZ BKN028 BKN035 16/16 A2996 RMK AO2 P0001

10-Day Weather Forecast

Almanac

Astronomy

Dec. 05, 2016 Rise Set
Actual Time
Civil Twilight
Nautical Twilight
Astronomical Twilight
Moon
Length of Visible Light
Length of Day
Tomorrow will be .
, % of the Moon is Illuminated

Today's Extremes

State Highs State Lows

Community

WunderPhotos

Upload Photos

1,955,777 photos uploaded!

WunderBlog® & News

Nearby

Air Quality

  Air Quality AQ Index Pollutant
Not available.

Snow Depth

Station Depth Elevation

Earthquake Activity

City Distance Mag. Time & Date
Minimum magnitude displayed is 2.5.

Coastal Water Temperatures

Place Temperature

Stations

Nearby Weather Stations

Station Location Temp. Windchill Dew Point Humidity Wind Precip. Elev Updated Type
                   

Watches & Warnings

There are currently no watches in effect.